sensor_id;sensor_type;location;lat;lon;timestamp;P1;durP1;ratioP1;P2;durP2;ratioP2
72201;SDS011;60105;54.956;73.412;2022-12-29T00:00:37;7.90;;;5.33;;
72201;SDS011;60105;54.956;73.412;2022-12-29T00:03:08;11.38;;;6.13;;
72201;SDS011;60105;54.956;73.412;2022-12-29T00:05:34;10.10;;;6.78;;
72201;SDS011;60105;54.956;73.412;2022-12-29T00:08:00;8.23;;;6.18;;
72201;SDS011;60105;54.956;73.412;2022-12-29T00:10:50;10.23;;;5.73;;
72201;SDS011;60105;54.956;73.412;2022-12-29T00:13:17;8.30;;;4.20;;
72201;SDS011;60105;54.956;73.412;2022-12-29T00:16:01;8.63;;;5.78;;
72201;SDS011;60105;54.956;73.412;2022-12-29T00:18:27;10.73;;;5.25;;
72201;SDS011;60105;54.956;73.412;2022-12-29T00:20:54;9.70;;;6.07;;
72201;SDS011;60105;54.956;73.412;2022-12-29T00:23:39;11.55;;;6.82;;
72201;SDS011;60105;54.956;73.412;2022-12-29T00:26:43;11.82;;;6.70;;
72201;SDS011;60105;54.956;73.412;2022-12-29T00:29:27;15.38;;;7.78;;
72201;SDS011;60105;54.956;73.412;2022-12-29T00:32:31;12.73;;;7.93;;
72201;SDS011;60105;54.956;73.412;2022-12-29T00:35:25;13.93;;;7.80;;
72201;SDS011;60105;54.956;73.412;2022-12-29T00:37:55;14.93;;;5.20;;
72201;SDS011;60105;54.956;73.412;2022-12-29T00:41:09;8.45;;;4.72;;
72201;SDS011;60105;54.956;73.412;2022-12-29T00:43:54;9.77;;;5.88;;
72201;SDS011;60105;54.956;73.412;2022-12-29T00:49:17;12.70;;;7.20;;
72201;SDS011;60105;54.956;73.412;2022-12-29T00:52:16;8.40;;;5.68;;
72201;SDS011;60105;54.956;73.412;2022-12-29T00:54:44;10.73;;;6.20;;
72201;SDS011;60105;54.956;73.412;2022-12-29T00:57:10;9.60;;;5.77;;
72201;SDS011;60105;54.956;73.412;2022-12-29T00:59:38;9.57;;;5.18;;
72201;SDS011;60105;54.956;73.412;2022-12-29T01:02:06;7.38;;;5.60;;
72201;SDS011;60105;54.956;73.412;2022-12-29T01:04:51;7.10;;;5.10;;
72201;SDS011;60105;54.956;73.412;2022-12-29T01:07:17;9.37;;;5.53;;
72201;SDS011;60105;54.956;73.412;2022-12-29T01:09:44;7.45;;;5.40;;
72201;SDS011;60105;54.956;73.412;2022-12-29T01:12:29;7.30;;;4.55;;
72201;SDS011;60105;54.956;73.412;2022-12-29T01:15:15;9.52;;;5.53;;
72201;SDS011;60105;54.956;73.412;2022-12-29T01:17:46;10.82;;;6.05;;
72201;SDS011;60105;54.956;73.412;2022-12-29T01:20:23;8.67;;;5.90;;
72201;SDS011;60105;54.956;73.412;2022-12-29T01:22:49;12.48;;;6.50;;
72201;SDS011;60105;54.956;73.412;2022-12-29T01:25:18;7.78;;;6.05;;
72201;SDS011;60105;54.956;73.412;2022-12-29T01:28:13;9.57;;;5.18;;
72201;SDS011;60105;54.956;73.412;2022-12-29T01:30:39;11.80;;;6.60;;
72201;SDS011;60105;54.956;73.412;2022-12-29T01:33:05;9.63;;;6.40;;
72201;SDS011;60105;54.956;73.412;2022-12-29T01:35:42;15.60;;;7.95;;
72201;SDS011;60105;54.956;73.412;2022-12-29T01:38:09;18.23;;;9.15;;
72201;SDS011;60105;54.956;73.412;2022-12-29T01:40:42;10.90;;;7.18;;
72201;SDS011;60105;54.956;73.412;2022-12-29T01:43:14;12.50;;;6.93;;
72201;SDS011;60105;54.956;73.412;2022-12-29T01:45:45;15.77;;;7.68;;
72201;SDS011;60105;54.956;73.412;2022-12-29T01:48:16;15.15;;;9.07;;
72201;SDS011;60105;54.956;73.412;2022-12-29T01:50:50;17.38;;;10.15;;
72201;SDS011;60105;54.956;73.412;2022-12-29T01:53:20;18.88;;;10.25;;
72201;SDS011;60105;54.956;73.412;2022-12-29T01:55:53;28.73;;;10.77;;
72201;SDS011;60105;54.956;73.412;2022-12-29T01:58:48;21.17;;;10.50;;
72201;SDS011;60105;54.956;73.412;2022-12-29T02:01:27;21.13;;;10.05;;
72201;SDS011;60105;54.956;73.412;2022-12-29T02:03:53;12.55;;;7.13;;
72201;SDS011;60105;54.956;73.412;2022-12-29T02:06:21;15.80;;;7.78;;
72201;SDS011;60105;54.956;73.412;2022-12-29T02:08:54;13.30;;;7.37;;
72201;SDS011;60105;54.956;73.412;2022-12-29T02:11:23;14.90;;;9.40;;
72201;SDS011;60105;54.956;73.412;2022-12-29T02:13:56;14.13;;;7.32;;
72201;SDS011;60105;54.956;73.412;2022-12-29T02:16:29;13.10;;;8.48;;
72201;SDS011;60105;54.956;73.412;2022-12-29T02:24:37;12.35;;;7.90;;
72201;SDS011;60105;54.956;73.412;2022-12-29T02:36:24;15.55;;;8.45;;
72201;SDS011;60105;54.956;73.412;2022-12-29T02:39:38;41.92;;;19.67;;
72201;SDS011;60105;54.956;73.412;2022-12-29T02:42:18;64.60;;;28.38;;
72201;SDS011;60105;54.956;73.412;2022-12-29T02:45:17;51.20;;;24.92;;
72201;SDS011;60105;54.956;73.412;2022-12-29T02:47:48;59.73;;;26.57;;
72201;SDS011;60105;54.956;73.412;2022-12-29T02:59:03;64.35;;;26.75;;
72201;SDS011;60105;54.956;73.412;2022-12-29T03:05:08;51.92;;;25.17;;
72201;SDS011;60105;54.956;73.412;2022-12-29T03:16:43;46.53;;;22.58;;
72201;SDS011;60105;54.956;73.412;2022-12-29T03:19:18;53.17;;;25.00;;
72201;SDS011;60105;54.956;73.412;2022-12-29T03:21:59;42.37;;;21.97;;
72201;SDS011;60105;54.956;73.412;2022-12-29T03:24:55;45.35;;;19.70;;
72201;SDS011;60105;54.956;73.412;2022-12-29T03:27:46;42.17;;;22.45;;
72201;SDS011;60105;54.956;73.412;2022-12-29T03:30:23;38.35;;;21.38;;
72201;SDS011;60105;54.956;73.412;2022-12-29T03:32:51;39.80;;;21.80;;
72201;SDS011;60105;54.956;73.412;2022-12-29T03:35:33;47.30;;;21.38;;
72201;SDS011;60105;54.956;73.412;2022-12-29T03:38:20;39.58;;;19.50;;
72201;SDS011;60105;54.956;73.412;2022-12-29T03:40:55;46.20;;;18.42;;
72201;SDS011;60105;54.956;73.412;2022-12-29T03:43:59;27.93;;;14.33;;
72201;SDS011;60105;54.956;73.412;2022-12-29T03:46:33;47.40;;;14.32;;
72201;SDS011;60105;54.956;73.412;2022-12-29T03:48:59;42.10;;;15.07;;
72201;SDS011;60105;54.956;73.412;2022-12-29T03:51:54;25.25;;;13.43;;
72201;SDS011;60105;54.956;73.412;2022-12-29T03:54:22;24.13;;;13.97;;
72201;SDS011;60105;54.956;73.412;2022-12-29T03:56:48;26.83;;;15.63;;
72201;SDS011;60105;54.956;73.412;2022-12-29T03:59:51;31.17;;;15.07;;
72201;SDS011;60105;54.956;73.412;2022-12-29T04:02:50;30.48;;;13.73;;
72201;SDS011;60105;54.956;73.412;2022-12-29T04:05:24;38.73;;;15.37;;
72201;SDS011;60105;54.956;73.412;2022-12-29T04:07:54;39.20;;;14.75;;
72201;SDS011;60105;54.956;73.412;2022-12-29T04:10:27;30.45;;;15.98;;
72201;SDS011;60105;54.956;73.412;2022-12-29T04:12:57;46.63;;;14.50;;
72201;SDS011;60105;54.956;73.412;2022-12-29T04:15:34;26.33;;;14.70;;
72201;SDS011;60105;54.956;73.412;2022-12-29T04:18:01;24.33;;;14.55;;
72201;SDS011;60105;54.956;73.412;2022-12-29T04:20:38;34.17;;;13.60;;
72201;SDS011;60105;54.956;73.412;2022-12-29T04:23:23;41.70;;;18.63;;
72201;SDS011;60105;54.956;73.412;2022-12-29T04:25:49;37.10;;;16.73;;
72201;SDS011;60105;54.956;73.412;2022-12-29T04:28:16;34.80;;;16.73;;
72201;SDS011;60105;54.956;73.412;2022-12-29T04:30:58;43.53;;;14.60;;
72201;SDS011;60105;54.956;73.412;2022-12-29T04:33:29;37.90;;;19.30;;
72201;SDS011;60105;54.956;73.412;2022-12-29T04:38:42;38.60;;;16.65;;
72201;SDS011;60105;54.956;73.412;2022-12-29T04:41:13;27.88;;;17.30;;
72201;SDS011;60105;54.956;73.412;2022-12-29T04:43:40;46.60;;;19.43;;
72201;SDS011;60105;54.956;73.412;2022-12-29T04:46:16;34.33;;;15.57;;
72201;SDS011;60105;54.956;73.412;2022-12-29T04:49:09;26.58;;;14.57;;
72201;SDS011;60105;54.956;73.412;2022-12-29T04:51:53;31.90;;;14.85;;
72201;SDS011;60105;54.956;73.412;2022-12-29T04:54:26;31.50;;;17.33;;
72201;SDS011;60105;54.956;73.412;2022-12-29T04:57:17;38.55;;;16.45;;
72201;SDS011;60105;54.956;73.412;2022-12-29T04:59:48;36.55;;;15.52;;
72201;SDS011;60105;54.956;73.412;2022-12-29T05:05:00;31.47;;;16.13;;
72201;SDS011;60105;54.956;73.412;2022-12-29T05:07:48;45.92;;;19.13;;
72201;SDS011;60105;54.956;73.412;2022-12-29T05:10:52;48.70;;;16.95;;
72201;SDS011;60105;54.956;73.412;2022-12-29T05:13:19;44.40;;;19.38;;
72201;SDS011;60105;54.956;73.412;2022-12-29T05:16:24;45.00;;;19.90;;
72201;SDS011;60105;54.956;73.412;2022-12-29T05:19:08;39.72;;;18.65;;
72201;SDS011;60105;54.956;73.412;2022-12-29T05:21:44;40.63;;;16.25;;
72201;SDS011;60105;54.956;73.412;2022-12-29T05:24:32;41.40;;;20.60;;
72201;SDS011;60105;54.956;73.412;2022-12-29T05:27:16;50.10;;;20.57;;
72201;SDS011;60105;54.956;73.412;2022-12-29T05:30:03;52.83;;;18.58;;
72201;SDS011;60105;54.956;73.412;2022-12-29T05:32:35;42.38;;;18.30;;
72201;SDS011;60105;54.956;73.412;2022-12-29T05:35:03;30.98;;;17.27;;
72201;SDS011;60105;54.956;73.412;2022-12-29T05:37:33;41.65;;;18.08;;
72201;SDS011;60105;54.956;73.412;2022-12-29T05:40:18;46.03;;;17.15;;
72201;SDS011;60105;54.956;73.412;2022-12-29T05:42:44;38.80;;;17.65;;
72201;SDS011;60105;54.956;73.412;2022-12-29T05:45:29;34.78;;;17.08;;
72201;SDS011;60105;54.956;73.412;2022-12-29T05:48:05;49.05;;;19.63;;
72201;SDS011;60105;54.956;73.412;2022-12-29T05:50:50;52.97;;;18.73;;
72201;SDS011;60105;54.956;73.412;2022-12-29T05:53:32;40.65;;;18.73;;
72201;SDS011;60105;54.956;73.412;2022-12-29T05:55:59;51.88;;;19.23;;
72201;SDS011;60105;54.956;73.412;2022-12-29T05:58:25;40.00;;;19.50;;
72201;SDS011;60105;54.956;73.412;2022-12-29T06:00:52;32.70;;;17.00;;
72201;SDS011;60105;54.956;73.412;2022-12-29T06:03:18;36.50;;;19.15;;
72201;SDS011;60105;54.956;73.412;2022-12-29T06:05:45;41.33;;;19.33;;
72201;SDS011;60105;54.956;73.412;2022-12-29T06:08:23;63.38;;;21.27;;
72201;SDS011;60105;54.956;73.412;2022-12-29T06:10:49;48.47;;;20.27;;
72201;SDS011;60105;54.956;73.412;2022-12-29T06:13:16;31.83;;;17.63;;
72201;SDS011;60105;54.956;73.412;2022-12-29T06:15:44;44.10;;;20.73;;
72201;SDS011;60105;54.956;73.412;2022-12-29T06:18:11;58.78;;;22.55;;
72201;SDS011;60105;54.956;73.412;2022-12-29T06:21:00;46.13;;;21.33;;
72201;SDS011;60105;54.956;73.412;2022-12-29T06:23:27;53.03;;;23.23;;
72201;SDS011;60105;54.956;73.412;2022-12-29T06:25:58;62.88;;;22.42;;
72201;SDS011;60105;54.956;73.412;2022-12-29T06:31:29;46.47;;;21.63;;
72201;SDS011;60105;54.956;73.412;2022-12-29T06:34:01;65.65;;;26.80;;
72201;SDS011;60105;54.956;73.412;2022-12-29T06:36:28;60.27;;;26.20;;
72201;SDS011;60105;54.956;73.412;2022-12-29T06:38:54;70.03;;;26.60;;
72201;SDS011;60105;54.956;73.412;2022-12-29T06:41:22;55.67;;;25.10;;
72201;SDS011;60105;54.956;73.412;2022-12-29T06:44:20;67.10;;;28.33;;
72201;SDS011;60105;54.956;73.412;2022-12-29T06:47:05;67.87;;;23.63;;
72201;SDS011;60105;54.956;73.412;2022-12-29T06:49:31;48.22;;;25.95;;
72201;SDS011;60105;54.956;73.412;2022-12-29T06:54:46;61.53;;;25.83;;
72201;SDS011;60105;54.956;73.412;2022-12-29T06:57:21;56.47;;;26.30;;
72201;SDS011;60105;54.956;73.412;2022-12-29T07:00:06;53.83;;;27.97;;
72201;SDS011;60105;54.956;73.412;2022-12-29T07:02:43;52.45;;;24.10;;
72201;SDS011;60105;54.956;73.412;2022-12-29T07:05:14;57.10;;;26.73;;
72201;SDS011;60105;54.956;73.412;2022-12-29T07:07:41;67.82;;;28.80;;
72201;SDS011;60105;54.956;73.412;2022-12-29T07:10:07;79.32;;;28.77;;
72201;SDS011;60105;54.956;73.412;2022-12-29T07:12:52;61.17;;;28.43;;
72201;SDS011;60105;54.956;73.412;2022-12-29T07:15:18;56.75;;;24.77;;
72201;SDS011;60105;54.956;73.412;2022-12-29T07:17:44;56.05;;;25.88;;
72201;SDS011;60105;54.956;73.412;2022-12-29T07:20:10;56.63;;;27.25;;
72201;SDS011;60105;54.956;73.412;2022-12-29T07:25:31;51.90;;;26.63;;
72201;SDS011;60105;54.956;73.412;2022-12-29T07:28:22;56.67;;;26.75;;
72201;SDS011;60105;54.956;73.412;2022-12-29T07:30:53;44.05;;;22.17;;
72201;SDS011;60105;54.956;73.412;2022-12-29T07:33:19;41.70;;;18.75;;
72201;SDS011;60105;54.956;73.412;2022-12-29T07:35:45;38.27;;;19.20;;
72201;SDS011;60105;54.956;73.412;2022-12-29T07:38:30;38.28;;;17.33;;
72201;SDS011;60105;54.956;73.412;2022-12-29T07:41:23;29.27;;;15.70;;
72201;SDS011;60105;54.956;73.412;2022-12-29T07:44:00;34.58;;;15.30;;
72201;SDS011;60105;54.956;73.412;2022-12-29T07:46:44;39.17;;;16.88;;
72201;SDS011;60105;54.956;73.412;2022-12-29T07:49:29;37.37;;;16.07;;
72201;SDS011;60105;54.956;73.412;2022-12-29T07:52:05;31.00;;;16.77;;
72201;SDS011;60105;54.956;73.412;2022-12-29T07:54:32;36.60;;;18.25;;
72201;SDS011;60105;54.956;73.412;2022-12-29T07:57:03;36.35;;;18.10;;
72201;SDS011;60105;54.956;73.412;2022-12-29T07:59:33;36.83;;;18.88;;
72201;SDS011;60105;54.956;73.412;2022-12-29T08:02:00;34.40;;;16.27;;
72201;SDS011;60105;54.956;73.412;2022-12-29T08:07:19;42.42;;;20.30;;
72201;SDS011;60105;54.956;73.412;2022-12-29T08:09:45;45.25;;;20.95;;
72201;SDS011;60105;54.956;73.412;2022-12-29T08:12:11;40.75;;;19.25;;
72201;SDS011;60105;54.956;73.412;2022-12-29T08:14:37;45.83;;;20.50;;
72201;SDS011;60105;54.956;73.412;2022-12-29T08:17:03;38.92;;;18.20;;
72201;SDS011;60105;54.956;73.412;2022-12-29T08:19:30;36.05;;;18.52;;
72201;SDS011;60105;54.956;73.412;2022-12-29T08:21:56;34.78;;;15.25;;
72201;SDS011;60105;54.956;73.412;2022-12-29T08:24:22;28.40;;;14.75;;
72201;SDS011;60105;54.956;73.412;2022-12-29T08:26:54;28.33;;;14.47;;
72201;SDS011;60105;54.956;73.412;2022-12-29T08:29:43;37.88;;;14.60;;
72201;SDS011;60105;54.956;73.412;2022-12-29T08:32:10;32.05;;;16.50;;
72201;SDS011;60105;54.956;73.412;2022-12-29T08:34:37;26.63;;;14.93;;
72201;SDS011;60105;54.956;73.412;2022-12-29T08:37:32;26.45;;;13.88;;
72201;SDS011;60105;54.956;73.412;2022-12-29T08:39:59;22.97;;;13.87;;
72201;SDS011;60105;54.956;73.412;2022-12-29T08:42:40;24.77;;;11.43;;
72201;SDS011;60105;54.956;73.412;2022-12-29T08:47:51;23.05;;;11.60;;
72201;SDS011;60105;54.956;73.412;2022-12-29T08:50:17;21.35;;;11.20;;
72201;SDS011;60105;54.956;73.412;2022-12-29T08:52:43;22.10;;;13.33;;
72201;SDS011;60105;54.956;73.412;2022-12-29T08:58:43;19.95;;;11.27;;
72201;SDS011;60105;54.956;73.412;2022-12-29T09:01:29;19.05;;;11.57;;
72201;SDS011;60105;54.956;73.412;2022-12-29T09:03:56;18.98;;;11.85;;
72201;SDS011;60105;54.956;73.412;2022-12-29T09:06:41;15.93;;;9.47;;
72201;SDS011;60105;54.956;73.412;2022-12-29T09:09:07;22.80;;;11.10;;
72201;SDS011;60105;54.956;73.412;2022-12-29T09:11:33;23.42;;;11.75;;
72201;SDS011;60105;54.956;73.412;2022-12-29T09:15:21;21.90;;;11.77;;
72201;SDS011;60105;54.956;73.412;2022-12-29T09:17:48;21.23;;;11.27;;
72201;SDS011;60105;54.956;73.412;2022-12-29T09:20:19;26.67;;;11.23;;
72201;SDS011;60105;54.956;73.412;2022-12-29T09:22:49;19.77;;;11.88;;
72201;SDS011;60105;54.956;73.412;2022-12-29T09:25:17;27.33;;;13.27;;
72201;SDS011;60105;54.956;73.412;2022-12-29T09:27:44;20.25;;;10.80;;
72201;SDS011;60105;54.956;73.412;2022-12-29T09:30:21;22.50;;;12.52;;
72201;SDS011;60105;54.956;73.412;2022-12-29T09:32:48;27.83;;;15.13;;
72201;SDS011;60105;54.956;73.412;2022-12-29T09:35:20;36.97;;;16.35;;
72201;SDS011;60105;54.956;73.412;2022-12-29T09:37:46;41.72;;;18.80;;
72201;SDS011;60105;54.956;73.412;2022-12-29T09:40:28;41.67;;;21.02;;
72201;SDS011;60105;54.956;73.412;2022-12-29T09:45:42;43.67;;;20.03;;
72201;SDS011;60105;54.956;73.412;2022-12-29T09:48:13;31.92;;;17.38;;
72201;SDS011;60105;54.956;73.412;2022-12-29T09:50:57;38.30;;;17.10;;
72201;SDS011;60105;54.956;73.412;2022-12-29T09:53:29;38.90;;;19.63;;
72201;SDS011;60105;54.956;73.412;2022-12-29T09:58:57;39.55;;;18.42;;
72201;SDS011;60105;54.956;73.412;2022-12-29T10:04:01;40.03;;;18.67;;
72201;SDS011;60105;54.956;73.412;2022-12-29T10:17:27;34.92;;;16.52;;
72201;SDS011;60105;54.956;73.412;2022-12-29T10:20:14;40.13;;;17.20;;
72201;SDS011;60105;54.956;73.412;2022-12-29T10:25:30;33.33;;;14.48;;
72201;SDS011;60105;54.956;73.412;2022-12-29T10:27:59;26.98;;;15.90;;
72201;SDS011;60105;54.956;73.412;2022-12-29T10:30:29;32.45;;;17.73;;
72201;SDS011;60105;54.956;73.412;2022-12-29T10:33:03;33.00;;;18.23;;
72201;SDS011;60105;54.956;73.412;2022-12-29T10:40:57;31.92;;;15.48;;
72201;SDS011;60105;54.956;73.412;2022-12-29T10:43:29;30.17;;;14.77;;
72201;SDS011;60105;54.956;73.412;2022-12-29T10:45:58;35.85;;;17.50;;
72201;SDS011;60105;54.956;73.412;2022-12-29T10:48:30;34.00;;;15.70;;
72201;SDS011;60105;54.956;73.412;2022-12-29T10:51:11;35.17;;;15.80;;
72201;SDS011;60105;54.956;73.412;2022-12-29T10:56:47;37.88;;;15.45;;
72201;SDS011;60105;54.956;73.412;2022-12-29T10:59:21;34.03;;;13.90;;
72201;SDS011;60105;54.956;73.412;2022-12-29T11:07:18;26.23;;;14.88;;
72201;SDS011;60105;54.956;73.412;2022-12-29T11:09:46;28.52;;;12.18;;
72201;SDS011;60105;54.956;73.412;2022-12-29T11:15:11;23.05;;;11.70;;
72201;SDS011;60105;54.956;73.412;2022-12-29T11:17:46;25.83;;;13.65;;
72201;SDS011;60105;54.956;73.412;2022-12-29T11:20:31;26.48;;;13.43;;
72201;SDS011;60105;54.956;73.412;2022-12-29T11:23:21;20.30;;;12.13;;
72201;SDS011;60105;54.956;73.412;2022-12-29T11:26:11;25.73;;;12.05;;
72201;SDS011;60105;54.956;73.412;2022-12-29T11:31:30;28.38;;;14.05;;
72201;SDS011;60105;54.956;73.412;2022-12-29T11:33:56;27.70;;;13.07;;
72201;SDS011;60105;54.956;73.412;2022-12-29T11:36:32;31.77;;;13.25;;
72201;SDS011;60105;54.956;73.412;2022-12-29T11:42:15;22.98;;;12.45;;
72201;SDS011;60105;54.956;73.412;2022-12-29T11:44:54;29.20;;;12.35;;
72201;SDS011;60105;54.956;73.412;2022-12-29T11:47:29;20.23;;;12.23;;
72201;SDS011;60105;54.956;73.412;2022-12-29T11:50:05;23.17;;;10.80;;
72201;SDS011;60105;54.956;73.412;2022-12-29T11:52:35;21.95;;;11.20;;
72201;SDS011;60105;54.956;73.412;2022-12-29T11:55:05;27.60;;;13.93;;
72201;SDS011;60105;54.956;73.412;2022-12-29T11:57:42;25.65;;;12.75;;
72201;SDS011;60105;54.956;73.412;2022-12-29T12:00:20;23.80;;;12.75;;
72201;SDS011;60105;54.956;73.412;2022-12-29T12:05:37;28.50;;;13.63;;
72201;SDS011;60105;54.956;73.412;2022-12-29T12:08:38;27.65;;;13.57;;
72201;SDS011;60105;54.956;73.412;2022-12-29T12:16:28;23.37;;;13.80;;
72201;SDS011;60105;54.956;73.412;2022-12-29T12:19:04;25.65;;;14.52;;
72201;SDS011;60105;54.956;73.412;2022-12-29T12:21:39;19.02;;;11.73;;
72201;SDS011;60105;54.956;73.412;2022-12-29T12:26:37;27.17;;;12.87;;
72201;SDS011;60105;54.956;73.412;2022-12-29T12:29:22;18.25;;;9.93;;
72201;SDS011;60105;54.956;73.412;2022-12-29T12:31:57;19.08;;;11.15;;
72201;SDS011;60105;54.956;73.412;2022-12-29T12:34:38;24.35;;;11.80;;
72201;SDS011;60105;54.956;73.412;2022-12-29T12:45:32;14.40;;;8.68;;
72201;SDS011;60105;54.956;73.412;2022-12-29T12:48:32;17.85;;;9.63;;
72201;SDS011;60105;54.956;73.412;2022-12-29T12:51:40;13.75;;;8.90;;
72201;SDS011;60105;54.956;73.412;2022-12-29T13:00:53;14.20;;;9.82;;
72201;SDS011;60105;54.956;73.412;2022-12-29T13:12:13;23.30;;;9.27;;
72201;SDS011;60105;54.956;73.412;2022-12-29T13:29:16;23.43;;;9.80;;
72201;SDS011;60105;54.956;73.412;2022-12-29T13:32:10;23.00;;;11.75;;
72201;SDS011;60105;54.956;73.412;2022-12-29T13:34:53;31.70;;;12.43;;
72201;SDS011;60105;54.956;73.412;2022-12-29T13:37:49;35.15;;;16.90;;
72201;SDS011;60105;54.956;73.412;2022-12-29T13:40:24;37.67;;;15.48;;
72201;SDS011;60105;54.956;73.412;2022-12-29T13:42:54;46.60;;;19.58;;
72201;SDS011;60105;54.956;73.412;2022-12-29T13:45:24;39.25;;;18.38;;
72201;SDS011;60105;54.956;73.412;2022-12-29T13:47:55;31.20;;;18.70;;
72201;SDS011;60105;54.956;73.412;2022-12-29T13:50:38;48.75;;;20.98;;
72201;SDS011;60105;54.956;73.412;2022-12-29T13:55:46;48.83;;;22.13;;
72201;SDS011;60105;54.956;73.412;2022-12-29T14:01:35;50.30;;;21.55;;
72201;SDS011;60105;54.956;73.412;2022-12-29T14:04:15;59.28;;;24.83;;
72201;SDS011;60105;54.956;73.412;2022-12-29T14:09:37;58.63;;;23.83;;
72201;SDS011;60105;54.956;73.412;2022-12-29T14:14:53;58.80;;;26.23;;
72201;SDS011;60105;54.956;73.412;2022-12-29T14:17:20;60.00;;;26.87;;
72201;SDS011;60105;54.956;73.412;2022-12-29T14:19:47;59.80;;;24.45;;
72201;SDS011;60105;54.956;73.412;2022-12-29T14:22:25;64.57;;;28.25;;
72201;SDS011;60105;54.956;73.412;2022-12-29T14:24:52;62.65;;;25.77;;
72201;SDS011;60105;54.956;73.412;2022-12-29T14:29:48;65.72;;;23.40;;
72201;SDS011;60105;54.956;73.412;2022-12-29T14:34:57;58.57;;;25.63;;
72201;SDS011;60105;54.956;73.412;2022-12-29T14:37:29;56.55;;;23.48;;
72201;SDS011;60105;54.956;73.412;2022-12-29T14:42:39;52.53;;;22.60;;
72201;SDS011;60105;54.956;73.412;2022-12-29T14:45:30;52.88;;;24.40;;
72201;SDS011;60105;54.956;73.412;2022-12-29T14:50:52;67.60;;;25.63;;
72201;SDS011;60105;54.956;73.412;2022-12-29T14:53:43;55.63;;;25.37;;
72201;SDS011;60105;54.956;73.412;2022-12-29T14:56:28;55.42;;;21.95;;
72201;SDS011;60105;54.956;73.412;2022-12-29T14:59:08;57.03;;;27.42;;
72201;SDS011;60105;54.956;73.412;2022-12-29T15:01:42;60.25;;;29.73;;
72201;SDS011;60105;54.956;73.412;2022-12-29T15:04:22;71.20;;;28.37;;
72201;SDS011;60105;54.956;73.412;2022-12-29T15:06:52;70.72;;;29.88;;
72201;SDS011;60105;54.956;73.412;2022-12-29T15:14:55;57.87;;;28.30;;
72201;SDS011;60105;54.956;73.412;2022-12-29T15:20:29;64.72;;;26.83;;
72201;SDS011;60105;54.956;73.412;2022-12-29T15:22:57;67.13;;;26.73;;
72201;SDS011;60105;54.956;73.412;2022-12-29T15:25:29;57.72;;;28.45;;
72201;SDS011;60105;54.956;73.412;2022-12-29T15:28:06;65.93;;;27.73;;
72201;SDS011;60105;54.956;73.412;2022-12-29T15:30:55;60.72;;;25.27;;
72201;SDS011;60105;54.956;73.412;2022-12-29T15:33:28;55.67;;;24.93;;
72201;SDS011;60105;54.956;73.412;2022-12-29T15:36:02;52.05;;;24.48;;
72201;SDS011;60105;54.956;73.412;2022-12-29T15:38:29;55.00;;;21.55;;
72201;SDS011;60105;54.956;73.412;2022-12-29T15:40:59;47.67;;;18.88;;
72201;SDS011;60105;54.956;73.412;2022-12-29T15:46:25;37.33;;;16.63;;
72201;SDS011;60105;54.956;73.412;2022-12-29T15:48:51;38.40;;;16.13;;
72201;SDS011;60105;54.956;73.412;2022-12-29T15:53:59;32.03;;;13.53;;
72201;SDS011;60105;54.956;73.412;2022-12-29T15:56:28;26.70;;;12.55;;
72201;SDS011;60105;54.956;73.412;2022-12-29T15:58:55;25.67;;;12.02;;
72201;SDS011;60105;54.956;73.412;2022-12-29T16:01:34;26.10;;;12.83;;
72201;SDS011;60105;54.956;73.412;2022-12-29T16:04:05;23.17;;;11.20;;
72201;SDS011;60105;54.956;73.412;2022-12-29T16:06:34;22.92;;;11.65;;
72201;SDS011;60105;54.956;73.412;2022-12-29T16:09:06;21.00;;;11.63;;
72201;SDS011;60105;54.956;73.412;2022-12-29T16:14:16;22.25;;;11.40;;
72201;SDS011;60105;54.956;73.412;2022-12-29T16:16:56;23.85;;;10.43;;
72201;SDS011;60105;54.956;73.412;2022-12-29T16:19:29;23.05;;;10.20;;
72201;SDS011;60105;54.956;73.412;2022-12-29T16:22:09;17.87;;;8.40;;
72201;SDS011;60105;54.956;73.412;2022-12-29T16:27:37;21.92;;;11.23;;
72201;SDS011;60105;54.956;73.412;2022-12-29T16:32:56;24.83;;;12.20;;
72201;SDS011;60105;54.956;73.412;2022-12-29T16:35:29;26.83;;;11.18;;
72201;SDS011;60105;54.956;73.412;2022-12-29T16:40:50;29.17;;;11.13;;
72201;SDS011;60105;54.956;73.412;2022-12-29T16:43:28;21.10;;;11.80;;
72201;SDS011;60105;54.956;73.412;2022-12-29T16:48:31;26.20;;;11.10;;
72201;SDS011;60105;54.956;73.412;2022-12-29T16:51:16;27.00;;;10.35;;
72201;SDS011;60105;54.956;73.412;2022-12-29T16:53:50;23.83;;;11.80;;
72201;SDS011;60105;54.956;73.412;2022-12-29T16:56:25;21.00;;;11.80;;
72201;SDS011;60105;54.956;73.412;2022-12-29T16:59:30;22.88;;;12.75;;
72201;SDS011;60105;54.956;73.412;2022-12-29T17:02:04;21.55;;;12.15;;
72201;SDS011;60105;54.956;73.412;2022-12-29T17:04:33;22.15;;;13.68;;
72201;SDS011;60105;54.956;73.412;2022-12-29T17:06:59;36.03;;;14.83;;
72201;SDS011;60105;54.956;73.412;2022-12-29T17:09:26;30.25;;;14.50;;
72201;SDS011;60105;54.956;73.412;2022-12-29T17:11:54;32.85;;;15.82;;
72201;SDS011;60105;54.956;73.412;2022-12-29T17:17:11;24.10;;;13.23;;
72201;SDS011;60105;54.956;73.412;2022-12-29T17:19:56;25.15;;;11.30;;
72201;SDS011;60105;54.956;73.412;2022-12-29T17:22:28;28.25;;;11.95;;
72201;SDS011;60105;54.956;73.412;2022-12-29T17:25:06;24.38;;;12.23;;
72201;SDS011;60105;54.956;73.412;2022-12-29T17:30:29;29.35;;;14.38;;
72201;SDS011;60105;54.956;73.412;2022-12-29T17:33:06;23.87;;;12.27;;
72201;SDS011;60105;54.956;73.412;2022-12-29T17:38:41;27.55;;;12.48;;
72201;SDS011;60105;54.956;73.412;2022-12-29T17:41:26;22.65;;;14.30;;
72201;SDS011;60105;54.956;73.412;2022-12-29T17:44:02;31.73;;;15.02;;
72201;SDS011;60105;54.956;73.412;2022-12-29T17:46:40;21.98;;;10.68;;
72201;SDS011;60105;54.956;73.412;2022-12-29T17:49:09;24.75;;;13.07;;
72201;SDS011;60105;54.956;73.412;2022-12-29T17:51:54;25.33;;;12.20;;
72201;SDS011;60105;54.956;73.412;2022-12-29T17:57:13;28.50;;;13.10;;
72201;SDS011;60105;54.956;73.412;2022-12-29T18:00:03;25.50;;;13.17;;
72201;SDS011;60105;54.956;73.412;2022-12-29T18:02:38;21.65;;;12.13;;
72201;SDS011;60105;54.956;73.412;2022-12-29T18:05:04;31.95;;;14.68;;
72201;SDS011;60105;54.956;73.412;2022-12-29T18:07:51;24.83;;;11.88;;
72201;SDS011;60105;54.956;73.412;2022-12-29T18:10:30;37.40;;;12.13;;
72201;SDS011;60105;54.956;73.412;2022-12-29T18:12:58;20.33;;;11.75;;
72201;SDS011;60105;54.956;73.412;2022-12-29T18:15:28;19.95;;;11.25;;
72201;SDS011;60105;54.956;73.412;2022-12-29T18:20:43;26.15;;;11.50;;
72201;SDS011;60105;54.956;73.412;2022-12-29T18:28:32;19.35;;;9.93;;
72201;SDS011;60105;54.956;73.412;2022-12-29T18:30:59;22.83;;;11.93;;
72201;SDS011;60105;54.956;73.412;2022-12-29T18:33:36;22.20;;;11.45;;
72201;SDS011;60105;54.956;73.412;2022-12-29T18:36:03;24.65;;;11.00;;
72201;SDS011;60105;54.956;73.412;2022-12-29T18:38:40;22.58;;;12.02;;
72201;SDS011;60105;54.956;73.412;2022-12-29T18:41:23;28.40;;;12.32;;
72201;SDS011;60105;54.956;73.412;2022-12-29T18:43:51;19.07;;;10.90;;